Time,TemperatureF,DewpointF,PressureIn,WindDirection,WindDirectionDegrees,WindSpeedMPH,WindSpeedGustMPH,Humidity,HourlyPrecipIn,Conditions,Clouds,dailyrainin,SoftwareType,DateUTC
2013-04-30 00:02:00,68.0,68.0,29.98,SSE,153,3.0,6.0,99,99.99,,,-99.99,,2013-04-30 04:02:00,
2013-04-30 00:12:00,69.0,69.0,29.98,North,0,0.0,0.0,100,99.99,,,-99.99,,2013-04-30 04:12:00,
2013-04-30 00:22:00,69.0,69.0,29.98,North,0,0.0,0.0,100,99.99,,,-99.99,,2013-04-30 04:22:00,
2013-04-30 00:32:00,69.0,69.0,29.98,North,0,0.0,0.0,100,99.99,,,-99.99,,2013-04-30 04:32:00,
2013-04-30 00:42:00,69.0,69.0,29.98,North,0,0.0,0.0,100,99.99,,,-99.99,,2013-04-30 04:42:00,
2013-04-30 00:52:00,69.0,69.0,29.98,North,0,0.0,0.0,100,99.99,,,-99.99,,2013-04-30 04:52:00,
2013-04-30 01:02:00,69.0,69.0,29.98,North,0,0.0,0.0,100,99.99,,,-99.99,,2013-04-30 05:02:00,
2013-04-30 01:12:00,69.0,69.0,29.98,North,0,0.0,0.0,100,99.99,,,-99.99,,2013-04-30 05:12:00,
2013-04-30 01:22:00,69.0,69.0,29.97,North,0,0.0,0.0,100,99.99,,,-99.99,,2013-04-30 05:22:00,
2013-04-30 01:31:00,69.0,69.0,29.97,North,0,0.0,0.0,100,99.99,,,-99.99,,2013-04-30 05:31:00,
2013-04-30 01:42:00,69.0,69.0,29.97,North,0,0.0,0.0,100,99.99,,,-99.99,,2013-04-30 05:42:00,
2013-04-30 01:51:00,69.0,69.0,29.97,North,0,0.0,0.0,100,99.99,,,-99.99,,2013-04-30 05:51:00,
2013-04-30 02:02:00,69.0,69.0,29.96,SSW,207,0.0,2.0,100,99.99,,,-99.99,,2013-04-30 06:02:00,
2013-04-30 02:12:00,69.0,69.0,29.96,SW,231,1.0,2.0,100,99.99,,,-99.99,,2013-04-30 06:12:00,
2013-04-30 02:21:00,69.0,69.0,29.96,SW,231,1.0,2.0,100,99.99,,,-99.99,,2013-04-30 06:21:00,
2013-04-30 02:32:00,69.0,69.0,29.96,North,0,0.0,0.0,100,99.99,,,-99.99,,2013-04-30 06:32:00,
2013-04-30 02:41:00,69.0,69.0,29.96,North,0,0.0,0.0,100,99.99,,,-99.99,,2013-04-30 06:41:00,
2013-04-30 02:52:00,69.0,69.0,29.96,North,0,0.0,0.0,100,99.99,,,-99.99,,2013-04-30 06:52:00,
2013-04-30 03:01:00,69.0,69.0,29.96,North,0,0.0,0.0,100,99.99,,,-99.99,,2013-04-30 07:01:00,
2013-04-30 03:11:00,69.0,69.0,29.96,North,0,0.0,0.0,100,99.99,,,-99.99,,2013-04-30 07:11:00,
2013-04-30 03:21:00,69.0,69.0,29.96,North,0,0.0,0.0,100,99.99,,,-99.99,,2013-04-30 07:21:00,
2013-04-30 03:31:00,69.0,69.0,29.96,WNW,290,1.0,2.0,100,99.99,,,-99.99,,2013-04-30 07:31:00,
2013-04-30 03:42:00,69.0,69.0,29.96,WNW,290,1.0,2.0,100,99.99,,,-99.99,,2013-04-30 07:42:00,
2013-04-30 03:52:00,69.0,69.0,29.95,SW,218,0.0,3.0,100,99.99,,,-99.99,,2013-04-30 07:52:00,
2013-04-30 04:02:00,69.0,69.0,29.95,North,0,0.0,0.0,100,99.99,,,-99.99,,2013-04-30 08:02:00,
2013-04-30 04:11:00,69.0,69.0,29.95,North,0,0.0,0.0,100,99.99,,,-99.99,,2013-04-30 08:11:00,
2013-04-30 04:22:00,69.0,69.0,29.95,North,0,0.0,0.0,100,99.99,,,-99.99,,2013-04-30 08:22:00,
2013-04-30 04:32:00,69.0,69.0,29.94,North,0,0.0,0.0,100,99.99,,,-99.99,,2013-04-30 08:32:00,
2013-04-30 04:42:00,69.0,69.0,29.94,North,0,0.0,0.0,100,99.99,,,-99.99,,2013-04-30 08:42:00,
2013-04-30 04:52:00,69.0,69.0,29.95,North,0,0.0,0.0,100,99.99,,,-99.99,,2013-04-30 08:52:00,
2013-04-30 05:01:00,69.0,69.0,29.94,North,0,0.0,0.0,100,99.99,,,-99.99,,2013-04-30 09:01:00,
2013-04-30 05:11:00,69.0,69.0,29.94,North,0,0.0,0.0,100,99.99,,,-99.99,,2013-04-30 09:11:00,
2013-04-30 05:22:00,68.0,68.0,29.94,North,0,0.0,0.0,100,99.99,,,-99.99,,2013-04-30 09:22:00,
2013-04-30 05:33:00,68.0,68.0,29.94,North,0,0.0,0.0,100,99.99,,,-99.99,,2013-04-30 09:33:00,
2013-04-30 05:43:00,68.0,68.0,29.94,North,0,0.0,0.0,100,99.99,,,-99.99,,2013-04-30 09:43:00,
2013-04-30 05:52:00,68.0,68.0,29.95,North,0,0.0,0.0,100,99.99,,,-99.99,,2013-04-30 09:52:00,
2013-04-30 06:03:00,68.0,68.0,29.96,North,0,0.0,0.0,100,99.99,,,-99.99,,2013-04-30 10:03:00,
2013-04-30 06:12:00,68.0,68.0,29.96,North,0,0.0,0.0,100,99.99,,,-99.99,,2013-04-30 10:12:00,
2013-04-30 06:22:00,68.0,68.0,29.96,North,0,0.0,0.0,100,99.99,,,-99.99,,2013-04-30 10:22:00,
2013-04-30 06:32:00,68.0,68.0,29.96,North,0,0.0,0.0,100,99.99,,,-99.99,,2013-04-30 10:32:00,
2013-04-30 06:41:00,68.0,68.0,29.96,North,0,0.0,0.0,100,99.99,,,-99.99,,2013-04-30 10:41:00,
2013-04-30 06:52:00,68.0,68.0,29.96,North,0,0.0,0.0,100,99.99,,,-99.99,,2013-04-30 10:52:00,
2013-04-30 07:02:00,68.0,68.0,29.98,North,0,0.0,0.0,100,99.99,,,-99.99,,2013-04-30 11:02:00,
2013-04-30 07:11:00,68.0,68.0,29.98,North,0,0.0,0.0,100,99.99,,,-99.99,,2013-04-30 11:11:00,
2013-04-30 07:21:00,68.0,68.0,29.98,North,356,1.0,4.0,100,99.99,,,-99.99,,2013-04-30 11:21:00,
2013-04-30 07:32:00,68.0,68.0,29.98,NNE,18,2.0,3.0,100,99.99,,,-99.99,,2013-04-30 11:32:00,
2013-04-30 07:42:00,68.0,68.0,29.98,NNE,18,2.0,3.0,100,99.99,,,-99.99,,2013-04-30 11:42:00,
2013-04-30 07:51:00,68.0,68.0,29.99,North,3,4.0,6.0,100,99.99,,,-99.99,,2013-04-30 11:51:00,
2013-04-30 08:01:00,69.0,69.0,29.99,North,359,3.0,5.0,100,99.99,,,-99.99,,2013-04-30 12:01:00,
2013-04-30 08:11:00,69.0,69.0,29.99,North,359,3.0,5.0,100,99.99,,,-99.99,,2013-04-30 12:11:00,
2013-04-30 08:21:00,69.0,69.0,29.99,North,354,3.0,5.0,100,99.99,,,-99.99,,2013-04-30 12:21:00,
2013-04-30 08:31:00,70.0,70.0,30.00,NNW,347,4.0,7.0,100,99.99,,,-99.99,,2013-04-30 12:31:00,
2013-04-30 08:41:00,70.0,70.0,30.00,NNW,347,4.0,7.0,100,99.99,,,-99.99,,2013-04-30 12:41:00,
2013-04-30 08:51:00,71.0,71.0,30.01,North,11,9.0,15.0,100,99.99,,,-99.99,,2013-04-30 12:51:00,
2013-04-30 09:01:00,71.0,71.0,30.01,NNW,346,6.0,13.0,100,99.99,,,-99.99,,2013-04-30 13:01:00,
2013-04-30 09:11:00,71.0,71.0,30.01,NNW,346,6.0,13.0,100,99.99,,,-99.99,,2013-04-30 13:11:00,
2013-04-30 09:21:00,71.0,67.0,30.00,North,357,5.0,9.0,87,99.99,,,-99.99,,2013-04-30 13:21:00,
2013-04-30 09:31:00,71.0,66.0,30.00,North,354,2.0,3.0,85,99.99,,,-99.99,,2013-04-30 13:31:00,
2013-04-30 09:41:00,71.0,66.0,30.00,North,354,2.0,3.0,85,99.99,,,-99.99,,2013-04-30 13:41:00,
2013-04-30 09:52:00,72.0,67.0,30.00,NNW,342,2.0,5.0,83,99.99,,,-99.99,,2013-04-30 13:52:00,
2013-04-30 10:02:00,73.0,65.0,30.01,NNW,346,2.0,4.0,75,99.99,,,-99.99,,2013-04-30 14:02:00,
2013-04-30 10:11:00,74.0,65.0,30.01,NW,326,3.0,5.0,74,99.99,,,-99.99,,2013-04-30 14:11:00,
2013-04-30 10:21:00,74.0,65.0,30.01,NW,326,3.0,5.0,74,99.99,,,-99.99,,2013-04-30 14:21:00,
2013-04-30 10:31:00,77.0,65.0,30.00,ENE,58,3.0,7.0,66,99.99,,,-99.99,,2013-04-30 14:31:00,
2013-04-30 10:41:00,77.0,65.0,30.00,ENE,58,3.0,7.0,66,99.99,,,-99.99,,2013-04-30 14:41:00,
2013-04-30 10:52:00,78.0,65.0,30.00,North,359,2.0,6.0,65,99.99,,,-99.99,,2013-04-30 14:52:00,
2013-04-30 11:01:00,79.0,65.0,30.00,NE,41,3.0,6.0,63,99.99,,,-99.99,,2013-04-30 15:01:00,
2013-04-30 11:11:00,79.0,65.0,30.00,NE,41,3.0,6.0,63,99.99,,,-99.99,,2013-04-30 15:11:00,
2013-04-30 11:21:00,79.0,66.0,30.00,SSW,197,1.0,4.0,65,99.99,,,-99.99,,2013-04-30 15:21:00,
2013-04-30 11:32:00,82.0,66.0,30.00,SE,146,2.0,4.0,59,99.99,,,-99.99,,2013-04-30 15:32:00,
2013-04-30 11:42:00,82.0,66.0,30.00,SE,146,2.0,4.0,59,99.99,,,-99.99,,2013-04-30 15:42:00,
2013-04-30 11:52:00,81.0,65.0,29.99,NW,316,2.0,4.0,58,99.99,,,-99.99,,2013-04-30 15:52:00,
2013-04-30 12:02:00,81.0,65.0,29.99,North,3,2.0,8.0,58,99.99,,,-99.99,,2013-04-30 16:02:00,
2013-04-30 12:12:00,81.0,65.0,29.99,North,3,2.0,8.0,58,99.99,,,-99.99,,2013-04-30 16:12:00,
2013-04-30 12:23:00,83.0,65.0,29.98,NE,53,1.0,4.0,54,99.99,,,-99.99,,2013-04-30 16:23:00,
2013-04-30 12:33:00,84.0,65.0,29.98,NW,307,1.0,4.0,53,99.99,,,-99.99,,2013-04-30 16:33:00,
2013-04-30 12:42:00,84.0,65.0,29.98,NW,307,1.0,4.0,53,99.99,,,-99.99,,2013-04-30 16:42:00,
2013-04-30 12:52:00,84.0,66.0,29.97,North,3,3.0,6.0,54,99.99,,,-99.99,,2013-04-30 16:52:00,
2013-04-30 13:02:00,84.0,66.0,29.97,NNW,332,5.0,7.0,54,99.99,,,-99.99,,2013-04-30 17:02:00,
2013-04-30 13:12:00,86.0,65.0,29.96,West,276,3.0,6.0,50,99.99,,,-99.99,,2013-04-30 17:12:00,
2013-04-30 13:22:00,86.0,65.0,29.96,West,276,3.0,6.0,50,99.99,,,-99.99,,2013-04-30 17:22:00,
2013-04-30 13:32:00,87.0,65.0,29.96,ENE,70,3.0,6.0,48,99.99,,,-99.99,,2013-04-30 17:32:00,
2013-04-30 13:42:00,86.0,65.0,29.95,ESE,121,1.0,4.0,49,99.99,,,-99.99,,2013-04-30 17:42:00,
2013-04-30 13:52:00,86.0,65.0,29.95,ESE,121,1.0,4.0,49,99.99,,,-99.99,,2013-04-30 17:52:00,
2013-04-30 14:01:00,85.0,65.0,29.94,NNE,18,3.0,6.0,51,99.99,,,-99.99,,2013-04-30 18:01:00,
2013-04-30 14:11:00,86.0,63.0,29.94,East,96,2.0,5.0,47,99.99,,,-99.99,,2013-04-30 18:11:00,
2013-04-30 14:22:00,86.0,63.0,29.94,East,96,2.0,5.0,47,99.99,,,-99.99,,2013-04-30 18:22:00,
2013-04-30 14:32:00,87.0,64.0,29.94,ESE,113,1.0,4.0,46,99.99,,,-99.99,,2013-04-30 18:32:00,
2013-04-30 14:42:00,86.0,65.0,29.93,NNE,15,0.0,3.0,49,99.99,,,-99.99,,2013-04-30 18:42:00,
2013-04-30 14:52:00,86.0,65.0,29.93,NNE,15,0.0,3.0,49,99.99,,,-99.99,,2013-04-30 18:52:00,
2013-04-30 15:01:00,86.0,63.0,29.93,WSW,253,2.0,4.0,47,99.99,,,-99.99,,2013-04-30 19:01:00,
2013-04-30 15:11:00,86.0,63.0,29.92,NE,51,2.0,6.0,47,99.99,,,-99.99,,2013-04-30 19:11:00,
2013-04-30 15:22:00,86.0,63.0,29.92,NE,51,2.0,6.0,47,99.99,,,-99.99,,2013-04-30 19:22:00,
2013-04-30 15:32:00,87.0,63.0,29.92,East,98,4.0,9.0,45,99.99,,,-99.99,,2013-04-30 19:32:00,
2013-04-30 15:42:00,89.0,63.0,29.91,North,8,2.0,6.0,42,99.99,,,-99.99,,2013-04-30 19:42:00,
2013-04-30 15:52:00,89.0,63.0,29.91,North,8,2.0,6.0,42,99.99,,,-99.99,,2013-04-30 19:52:00,
2013-04-30 16:02:00,85.0,68.0,29.92,ESE,108,8.0,14.0,56,99.99,,,-99.99,,2013-04-30 20:02:00,
2013-04-30 16:11:00,85.0,68.0,29.92,ESE,108,8.0,14.0,56,99.99,,,-99.99,,2013-04-30 20:11:00,
2013-04-30 16:21:00,82.0,67.0,29.93,SSE,160,11.0,17.0,61,99.99,,,-99.99,,2013-04-30 20:21:00,
2013-04-30 16:32:00,81.0,68.0,29.93,SSE,149,10.0,19.0,64,99.99,,,-99.99,,2013-04-30 20:32:00,
2013-04-30 16:42:00,81.0,68.0,29.93,SSE,149,10.0,19.0,64,99.99,,,-99.99,,2013-04-30 20:42:00,
2013-04-30 16:52:00,79.0,68.0,29.94,South,173,11.0,20.0,69,99.99,,,-99.99,,2013-04-30 20:52:00,
2013-04-30 17:02:00,77.0,70.0,29.94,SSE,163,7.0,13.0,79,99.99,,,-99.99,,2013-04-30 21:02:00,
2013-04-30 17:11:00,75.0,70.0,29.95,SW,218,12.0,15.0,85,99.99,,,-99.99,,2013-04-30 21:11:00,
2013-04-30 17:22:00,75.0,70.0,29.95,SW,218,12.0,15.0,85,99.99,,,-99.99,,2013-04-30 21:22:00,
2013-04-30 17:32:00,73.0,69.0,29.95,SSE,159,12.0,21.0,86,99.99,,,-99.99,,2013-04-30 21:32:00,
2013-04-30 17:42:00,73.0,69.0,29.95,SSE,159,12.0,21.0,86,99.99,,,-99.99,,2013-04-30 21:42:00,
2013-04-30 17:53:00,74.0,71.0,29.95,SE,142,9.0,13.0,91,99.99,,,-99.99,,2013-04-30 21:53:00,
2013-04-30 18:02:00,73.0,70.0,29.95,South,173,7.0,15.0,90,99.99,,,-99.99,,2013-04-30 22:02:00,
2013-04-30 18:12:00,73.0,71.0,29.97,West,263,8.0,12.0,93,99.99,,,-99.99,,2013-04-30 22:12:00,
2013-04-30 18:23:00,73.0,71.0,29.97,West,263,8.0,12.0,93,99.99,,,-99.99,,2013-04-30 22:23:00,
2013-04-30 18:32:00,71.0,70.0,29.95,SSE,150,12.0,27.0,96,99.99,,,-99.99,,2013-04-30 22:32:00,
2013-04-30 18:42:00,71.0,70.0,29.95,SSE,150,12.0,27.0,96,99.99,,,-99.99,,2013-04-30 22:42:00,
2013-04-30 18:53:00,71.0,71.0,29.96,SE,136,6.0,9.0,100,99.99,,,-99.99,,2013-04-30 22:53:00,
2013-04-30 19:02:00,71.0,71.0,29.96,SE,124,4.0,8.0,100,99.99,,,-99.99,,2013-04-30 23:02:00,
2013-04-30 19:12:00,71.0,71.0,29.96,SSE,152,5.0,9.0,100,99.99,,,-99.99,,2013-04-30 23:12:00,
2013-04-30 19:22:00,71.0,71.0,29.96,SSE,152,5.0,9.0,100,99.99,,,-99.99,,2013-04-30 23:22:00,
2013-04-30 19:32:00,71.0,71.0,29.96,SSE,156,2.0,7.0,100,99.99,,,-99.99,,2013-04-30 23:32:00,
2013-04-30 19:42:00,71.0,71.0,29.96,SSE,156,2.0,7.0,100,99.99,,,-99.99,,2013-04-30 23:42:00,
2013-04-30 19:52:00,71.0,71.0,29.96,SSE,159,3.0,7.0,100,99.99,,,-99.99,,2013-04-30 23:52:00,
2013-04-30 20:02:00,71.0,71.0,29.96,North,0,0.0,0.0,100,99.99,,,-99.99,,2013-05-01 00:02:00,
2013-04-30 20:11:00,71.0,71.0,29.96,North,0,0.0,0.0,100,99.99,,,-99.99,,2013-05-01 00:11:00,
2013-04-30 20:22:00,70.0,70.0,29.98,North,0,0.0,0.0,100,99.99,,,-99.99,,2013-05-01 00:22:00,
2013-04-30 20:32:00,70.0,70.0,29.97,North,0,0.0,0.0,100,99.99,,,-99.99,,2013-05-01 00:32:00,
2013-04-30 20:42:00,70.0,70.0,29.97,North,0,0.0,0.0,100,99.99,,,-99.99,,2013-05-01 00:42:00,
2013-04-30 20:52:00,70.0,70.0,29.98,North,0,0.0,0.0,100,99.99,,,-99.99,,2013-05-01 00:52:00,
2013-04-30 21:01:00,70.0,70.0,29.98,North,0,0.0,0.0,100,99.99,,,-99.99,,2013-05-01 01:01:00,
2013-04-30 21:11:00,70.0,70.0,29.98,North,0,0.0,0.0,100,99.99,,,-99.99,,2013-05-01 01:11:00,
2013-04-30 21:21:00,70.0,70.0,29.99,NNE,15,0.0,0.0,100,99.99,,,-99.99,,2013-05-01 01:21:00,
2013-04-30 21:32:00,70.0,70.0,29.99,North,0,0.0,0.0,100,99.99,,,-99.99,,2013-05-01 01:32:00,
2013-04-30 21:42:00,70.0,70.0,29.99,North,0,0.0,0.0,100,99.99,,,-99.99,,2013-05-01 01:42:00,
2013-04-30 21:52:00,70.0,70.0,30.00,North,0,0.0,0.0,100,99.99,,,-99.99,,2013-05-01 01:52:00,
2013-04-30 22:02:00,70.0,70.0,30.00,NE,49,4.0,7.0,100,99.99,,,-99.99,,2013-05-01 02:02:00,
2013-04-30 22:11:00,70.0,70.0,30.01,NE,55,2.0,4.0,100,99.99,,,-99.99,,2013-05-01 02:11:00,
2013-04-30 22:21:00,70.0,70.0,30.01,NE,55,2.0,4.0,100,99.99,,,-99.99,,2013-05-01 02:21:00,
2013-04-30 22:32:00,70.0,70.0,30.01,NE,53,0.0,1.0,100,99.99,,,-99.99,,2013-05-01 02:32:00,
2013-04-30 22:42:00,70.0,70.0,30.01,NE,53,0.0,1.0,100,99.99,,,-99.99,,2013-05-01 02:42:00,
2013-04-30 22:52:00,70.0,70.0,30.01,NE,53,0.0,3.0,100,99.99,,,-99.99,,2013-05-01 02:52:00,
2013-04-30 23:02:00,69.0,69.0,30.01,NE,56,0.0,2.0,100,99.99,,,-99.99,,2013-05-01 03:02:00,
2013-04-30 23:11:00,69.0,69.0,30.01,NE,56,0.0,2.0,100,99.99,,,-99.99,,2013-05-01 03:11:00,
2013-04-30 23:21:00,69.0,69.0,30.01,North,0,0.0,0.0,100,99.99,,,-99.99,,2013-05-01 03:21:00,
2013-04-30 23:33:00,69.0,69.0,30.01,North,0,0.0,0.0,100,99.99,,,-99.99,,2013-05-01 03:33:00,
2013-04-30 23:43:00,69.0,69.0,30.01,North,0,0.0,0.0,100,99.99,,,-99.99,,2013-05-01 03:43:00,
2013-04-30 23:53:00,69.0,69.0,30.00,North,0,0.0,0.0,100,99.99,,,-99.99,,2013-05-01 03:53:00,